Time;durP1;ratioP1;P1;durP2;ratioP2;P2;SDS_P1;SDS_P2;PMS_P1;PMS_P2;Temp;Humidity;BMP_temperature;BMP_pressure;BME280_temperature;BME280_humidity;BME280_pressure;Samples;Min_cycle;Max_cycle;Signal;HPM_P1;HPM_P2
2021/05/16 00:00:29;;;;;;;3.92;2.03;;;;;;;10.10;85.78;100399.56;5055286;28;20176;-49
2021/05/16 00:02:55;;;;;;;5.10;2.30;;;;;;;10.06;85.20;100396.59;5054182;28;20044;-51
2021/05/16 00:05:23;;;;;;;2.88;2.08;;;;;;;10.04;85.92;100397.88;5056511;28;20164;-48
2021/05/16 00:07:49;;;;;;;4.05;2.10;;;;;;;10.07;85.81;100392.84;5056573;28;20024;-51
2021/05/16 00:10:16;;;;;;;2.90;2.13;;;;;;;10.03;85.81;100388.22;5057964;28;20036;-52
2021/05/16 00:12:42;;;;;;;2.53;2.03;;;;;;;10.04;85.89;100382.63;5059236;28;20028;-52
2021/05/16 00:15:10;;;;;;;3.47;1.90;;;;;;;9.98;85.89;100389.78;5051587;28;20035;-52
2021/05/16 00:17:36;;;;;;;3.35;2.08;;;;;;;9.96;86.33;100381.22;5058719;28;20055;-51
2021/05/16 00:20:08;;;;;;;3.25;2.42;;;;;;;9.82;87.43;100380.00;5054977;28;20056;-53
2021/05/16 00:22:34;;;;;;;3.58;2.08;;;;;;;9.88;86.23;100373.66;5058159;28;20390;-50
2021/05/16 00:24:59;;;;;;;3.05;2.10;;;;;;;9.85;86.34;100378.69;5055203;28;20340;-53
2021/05/16 00:27:25;;;;;;;5.25;2.67;;;;;;;9.81;86.42;100378.38;5057303;28;20120;-49
2021/05/16 00:29:50;;;;;;;6.43;2.50;;;;;;;9.67;87.80;100377.97;5056134;28;20029;-50
2021/05/16 00:32:16;;;;;;;5.97;2.28;;;;;;;9.60;88.86;100379.22;5056379;28;20039;-51
2021/05/16 00:34:41;;;;;;;2.42;2.10;;;;;;;9.64;88.58;100385.69;5056847;28;20466;-51
2021/05/16 00:37:07;;;;;;;4.70;2.97;;;;;;;9.67;87.85;100383.31;5054329;28;20017;-52
2021/05/16 00:39:32;;;;;;;3.83;2.10;;;;;;;9.63;88.45;100376.84;5057402;28;20029;-50
2021/05/16 00:41:58;;;;;;;3.75;2.10;;;;;;;9.64;88.32;100377.66;5053887;28;20036;-52
2021/05/16 00:44:24;;;;;;;2.03;1.83;;;;;;;9.63;88.67;100373.38;5055532;28;20113;-51
2021/05/16 00:46:49;;;;;;;2.28;1.80;;;;;;;9.76;87.30;100380.19;5056015;28;20148;-49
2021/05/16 00:49:16;;;;;;;2.65;2.15;;;;;;;9.80;86.96;100366.06;5053991;28;20032;-50
2021/05/16 00:51:42;;;;;;;3.75;2.30;;;;;;;9.83;86.82;100367.41;5056147;28;20035;-52
2021/05/16 00:54:08;;;;;;;3.83;2.28;;;;;;;9.90;86.49;100365.38;5055080;28;20023;-52
2021/05/16 00:56:33;;;;;;;3.97;2.70;;;;;;;9.85;87.16;100359.94;5054290;28;20024;-50
2021/05/16 00:59:00;;;;;;;10.45;2.65;;;;;;;9.83;87.59;100362.06;5053739;28;20402;-49
2021/05/16 01:01:29;;;;;;;3.38;2.40;;;;;;;9.91;86.53;100367.78;5057642;28;20037;-52
2021/05/16 01:03:54;;;;;;;4.68;2.33;;;;;;;9.96;86.54;100378.53;5054277;28;20025;-52
2021/05/16 01:06:21;;;;;;;5.30;2.30;;;;;;;10.07;85.43;100371.44;5055175;28;20548;-49
2021/05/16 01:08:49;;;;;;;3.28;2.30;;;;;;;10.09;85.71;100373.84;5053776;28;20048;-52
2021/05/16 01:11:17;;;;;;;5.25;2.35;;;;;;;10.00;86.83;100378.84;5055616;28;20144;-50
2021/05/16 01:13:47;;;;;;;5.00;2.70;;;;;;;10.08;86.44;100377.59;5056813;28;20156;-53
2021/05/16 01:16:13;;;;;;;3.97;2.80;;;;;;;10.12;86.22;100374.16;5051387;28;20031;-50
2021/05/16 01:18:38;;;;;;;7.40;3.03;;;;;;;10.12;86.36;100376.00;5057963;28;20244;-51
2021/05/16 01:21:04;;;;;;;4.82;3.08;;;;;;;10.16;85.60;100369.88;5051228;28;20563;-51
2021/05/16 01:23:44;;;;;;;4.43;2.67;;;;;;;10.17;85.64;100370.69;5057823;28;20036;-52
2021/05/16 01:26:09;;;;;;;3.67;2.80;;;;;;;10.17;85.87;100365.34;5050976;28;20502;-50
2021/05/16 01:28:35;;;;;;;6.68;2.80;;;;;;;10.16;85.97;100363.72;5055799;28;20059;-51
2021/05/16 01:31:01;;;;;;;4.15;3.33;;;;;;;10.09;86.92;100373.84;5055566;28;20064;-52
2021/05/16 01:33:26;;;;;;;5.25;2.58;;;;;;;10.12;86.87;100376.00;5057609;28;20063;-49
2021/05/16 01:35:52;;;;;;;5.95;3.03;;;;;;;10.08;87.15;100366.88;5053914;28;20119;-51
2021/05/16 01:38:18;;;;;;;3.92;3.38;;;;;;;10.09;87.29;100371.97;5056401;28;20108;-49
2021/05/16 01:40:43;;;;;;;5.75;3.72;;;;;;;10.09;87.22;100363.94;5051938;28;20052;-53
2021/05/16 01:43:13;;;;;;;4.80;3.67;;;;;;;10.15;86.84;100367.47;5055910;28;20029;-50
2021/05/16 01:45:39;;;;;;;4.63;4.15;;;;;;;10.12;87.42;100362.63;5054684;28;20500;-49
2021/05/16 01:48:05;;;;;;;5.72;3.75;;;;;;;10.15;87.17;100367.47;5055076;28;20021;-49
2021/05/16 01:50:34;;;;;;;8.23;3.95;;;;;;;10.20;86.59;100370.19;5059710;28;20028;-49
2021/05/16 01:53:01;;;;;;;5.45;4.20;;;;;;;10.11;88.16;100377.88;5059122;28;20106;-49
2021/05/16 01:55:27;;;;;;;5.45;4.03;;;;;;;10.18;86.81;100378.47;5054970;28;20052;-48
2021/05/16 01:57:53;;;;;;;5.03;4.32;;;;;;;10.09;88.55;100381.88;5061736;28;20120;-49
2021/05/16 02:00:25;;;;;;;6.05;4.03;;;;;;;10.09;88.04;100371.16;5061356;28;20037;-50
2021/05/16 02:02:51;;;;;;;7.63;3.97;;;;;;;10.14;87.33;100376.56;5061090;28;20040;-49
2021/05/16 02:05:17;;;;;;;5.15;4.10;;;;;;;10.14;87.53;100381.91;5059834;28;20048;-49
2021/05/16 02:07:43;;;;;;;4.90;4.03;;;;;;;10.16;87.00;100374.44;5058445;28;20016;-51
2021/05/16 02:10:09;;;;;;;5.55;4.00;;;;;;;10.19;86.71;100371.25;5058393;28;20025;-51
2021/05/16 02:12:35;;;;;;;5.63;4.28;;;;;;;10.19;86.75;100366.69;5062198;28;20016;-50
2021/05/16 02:15:00;;;;;;;4.95;3.78;;;;;;;10.19;86.87;100372.06;5058438;28;20297;-51
2021/05/16 02:17:27;;;;;;;7.32;4.82;;;;;;;10.22;86.69;100368.09;5060107;28;20471;-49
2021/05/16 02:19:52;;;;;;;5.97;4.22;;;;;;;10.24;86.55;100363.31;5057583;28;20025;-49
2021/05/16 02:22:18;;;;;;;8.43;4.38;;;;;;;10.26;86.34;100369.22;5055259;28;20512;-50
2021/05/16 02:24:44;;;;;;;7.55;4.70;;;;;;;10.33;86.09;100377.84;5060681;28;20051;-51
2021/05/16 02:27:10;;;;;;;6.38;4.25;;;;;;;10.33;86.26;100371.66;5058778;28;20037;-49
2021/05/16 02:29:36;;;;;;;5.80;4.05;;;;;;;10.31;86.54;100376.47;5061603;28;20086;-53
2021/05/16 02:32:05;;;;;;;5.82;4.43;;;;;;;10.32;86.47;100368.19;5059142;28;20048;-50
2021/05/16 02:34:31;;;;;;;7.55;3.80;;;;;;;10.37;86.28;100372.78;5061615;28;20051;-49
2021/05/16 02:36:57;;;;;;;5.80;4.18;;;;;;;10.37;86.22;100372.78;5059816;28;20456;-52
2021/05/16 02:39:22;;;;;;;7.60;4.93;;;;;;;10.37;86.31;100367.41;5054827;28;20055;-49
2021/05/16 02:41:48;;;;;;;5.93;4.60;;;;;;;10.39;86.31;100362.59;5060894;28;20469;-49
2021/05/16 02:44:14;;;;;;;7.45;4.63;;;;;;;10.42;85.92;100368.28;5058944;28;20024;-49
2021/05/16 02:46:39;;;;;;;5.88;4.55;;;;;;;10.41;86.20;100363.16;5063043;28;20539;-51
2021/05/16 02:49:05;;;;;;;6.15;4.30;;;;;;;10.41;86.47;100368.50;5053982;28;20623;-51
2021/05/16 02:51:31;;;;;;;7.70;4.57;;;;;;;10.42;86.53;100372.84;5060690;28;20332;-50
2021/05/16 02:53:56;;;;;;;7.90;5.05;;;;;;;10.37;87.42;100368.22;5054873;28;20310;-49
2021/05/16 02:56:22;;;;;;;9.45;5.50;;;;;;;10.36;87.85;100369.28;5059370;28;20029;-49
2021/05/16 02:58:47;;;;;;;7.07;4.75;;;;;;;10.35;87.45;100373.03;5059445;28;20032;-51
2021/05/16 03:01:13;;;;;;;6.90;4.20;;;;;;;10.27;88.82;100376.19;5056281;28;20498;-50
2021/05/16 03:03:39;;;;;;;5.80;4.15;;;;;;;10.31;88.47;100371.94;5056855;28;20029;-50
2021/05/16 03:06:06;;;;;;;6.07;4.20;;;;;;;10.29;88.23;100368.69;5058032;28;20029;-53
2021/05/16 03:08:31;;;;;;;8.18;5.00;;;;;;;10.26;88.92;100375.38;5060637;28;20025;-47
2021/05/16 03:10:57;;;;;;;5.85;4.78;;;;;;;10.33;88.57;100369.00;5055159;28;20081;-52
2021/05/16 03:13:22;;;;;;;5.97;4.70;;;;;;;10.31;88.86;100379.97;5058549;28;20101;-49
2021/05/16 03:15:48;;;;;;;5.75;4.95;;;;;;;10.39;87.95;100376.00;5054757;28;20481;-49
2021/05/16 03:18:13;;;;;;;5.70;4.82;;;;;;;10.35;88.17;100375.72;5056361;28;20044;-49
2021/05/16 03:20:39;;;;;;;5.57;4.63;;;;;;;10.36;88.22;100369.28;5053022;28;20068;-50
2021/05/16 03:23:04;;;;;;;7.57;4.97;;;;;;;10.35;88.58;100374.91;5057204;28;20615;-50
2021/05/16 03:25:30;;;;;;;6.68;4.70;;;;;;;10.35;88.42;100378.38;5058371;28;20155;-50
2021/05/16 03:27:55;;;;;;;7.40;5.30;;;;;;;10.29;89.33;100374.06;5056360;28;20117;-52
2021/05/16 03:30:22;;;;;;;7.22;5.05;;;;;;;10.38;88.30;100380.53;5053659;28;20056;-49
2021/05/16 03:32:47;;;;;;;8.13;5.25;;;;;;;10.39;88.33;100378.69;5055107;28;20021;-50
2021/05/16 03:35:13;;;;;;;6.90;5.40;;;;;;;10.33;89.10;100380.50;5054504;28;20036;-50
2021/05/16 03:37:39;;;;;;;7.78;5.20;;;;;;;10.34;89.16;100376.78;5053490;28;20133;-49
2021/05/16 03:40:06;;;;;;;5.93;5.03;;;;;;;10.44;87.84;100366.16;5056035;28;20074;-49
2021/05/16 03:42:35;;;;;;;6.88;5.45;;;;;;;10.42;88.30;100373.63;5056994;28;20495;-51
2021/05/16 03:45:02;;;;;;;6.72;5.32;;;;;;;10.43;88.44;100375.25;5050648;28;20581;-51
2021/05/16 03:47:28;;;;;;;6.47;4.90;;;;;;;10.41;88.45;100369.34;5054437;28;20075;-52
2021/05/16 03:49:53;;;;;;;7.32;4.43;;;;;;;10.41;88.73;100377.38;5051899;28;20380;-52
2021/05/16 03:52:19;;;;;;;6.68;5.18;;;;;;;10.38;89.22;100385.09;5053026;28;20059;-53
2021/05/16 03:54:49;;;;;;;6.53;5.78;;;;;;;10.40;89.17;100383.78;5055596;28;20474;-50
2021/05/16 03:57:16;;;;;;;7.55;5.28;;;;;;;10.51;88.02;100371.28;5057512;28;20112;-50
2021/05/16 03:59:42;;;;;;;7.25;5.50;;;;;;;10.59;87.32;100376.97;5055796;28;20025;-52
2021/05/16 04:02:08;;;;;;;6.05;5.45;;;;;;;10.57;87.80;100384.44;5055025;28;20055;-49
2021/05/16 04:04:34;;;;;;;9.55;6.05;;;;;;;10.51;88.97;100379.31;5056005;28;20024;-53
2021/05/16 04:06:59;;;;;;;6.70;5.22;;;;;;;10.58;88.20;100383.38;5055377;28;20112;-50
2021/05/16 04:09:25;;;;;;;7.13;5.82;;;;;;;10.67;87.36;100374.88;5055542;28;20040;-49
2021/05/16 04:11:50;;;;;;;8.40;5.90;;;;;;;10.72;86.90;100367.69;5056211;28;20026;-49
2021/05/16 04:14:17;;;;;;;6.07;4.80;;;;;;;10.75;87.18;100371.72;5054319;28;20772;-49
2021/05/16 04:16:43;;;;;;;12.57;6.18;;;;;;;10.80;86.79;100369.09;5057098;28;20048;-53
2021/05/16 04:19:08;;;;;;;6.55;5.25;;;;;;;10.75;87.50;100374.38;5051762;28;20589;-51
2021/05/16 04:21:34;;;;;;;6.85;5.60;;;;;;;10.79;86.91;100375.50;5055042;28;20024;-50
2021/05/16 04:24:00;;;;;;;8.18;5.53;;;;;;;10.67;88.13;100370.31;5053353;28;20025;-50
2021/05/16 04:26:25;;;;;;;6.80;5.82;;;;;;;10.69;87.89;100372.75;5055722;28;20108;-49
2021/05/16 04:28:51;;;;;;;7.65;5.53;;;;;;;10.57;89.33;100375.59;5052745;28;20390;-50
2021/05/16 04:31:16;;;;;;;6.78;5.78;;;;;;;10.71;88.23;100373.28;5054771;28;20489;-50
2021/05/16 04:33:41;;;;;;;6.70;4.53;;;;;;;10.79;87.82;100368.28;5054390;28;20180;-50
2021/05/16 04:36:07;;;;;;;7.13;5.60;;;;;;;10.94;86.82;100370.22;5053659;28;20470;-51
2021/05/16 04:38:32;;;;;;;8.85;5.93;;;;;;;11.07;86.17;100369.75;5057313;28;20094;-53
2021/05/16 04:40:58;;;;;;;5.82;5.25;;;;;;;11.44;84.61;100374.22;5054861;28;20024;-53
2021/05/16 04:43:23;;;;;;;6.63;5.07;;;;;;;11.76;83.43;100377.53;5055037;28;20032;-49
2021/05/16 04:45:49;;;;;;;7.72;6.18;;;;;;;12.03;82.44;100371.19;5053472;28;20020;-50
2021/05/16 04:48:15;;;;;;;7.57;4.97;;;;;;;12.23;81.50;100365.03;5051502;28;20048;-49
2021/05/16 04:50:40;;;;;;;6.65;5.07;;;;;;;12.38;80.58;100373.88;5055366;28;20024;-49
2021/05/16 04:53:05;;;;;;;6.55;5.15;;;;;;;12.32;80.86;100380.34;5053872;28;20060;-49
2021/05/16 04:55:31;;;;;;;7.93;4.97;;;;;;;12.38;80.78;100373.88;5073200;23;20057;-79
2021/05/16 04:57:56;;;;;;;6.53;4.07;;;;;;;12.50;80.43;100375.50;5044093;28;20056;-79
2021/05/16 05:00:22;;;;;;;6.60;4.57;;;;;;;12.47;81.02;100368.00;5041026;28;20029;-79
2021/05/16 05:02:48;;;;;;;5.63;3.95;;;;;;;12.24;81.28;100356.72;5042416;28;20446;-79
2021/05/16 05:05:14;;;;;;;7.32;4.50;;;;;;;12.01;81.97;100363.38;5044535;28;20075;-79
2021/05/16 05:07:41;;;;;;;5.40;4.28;;;;;;;11.87;82.13;100366.88;5042492;28;20030;-79
2021/05/16 05:10:08;;;;;;;5.35;4.78;;;;;;;11.99;82.00;100364.72;5041214;28;20021;-81
2021/05/16 05:12:33;;;;;;;4.40;3.83;;;;;;;12.12;81.67;100369.59;5041585;28;20032;-79
2021/05/16 05:14:59;;;;;;;3.70;3.33;;;;;;;12.07;81.66;100366.91;5042129;28;20093;-79
2021/05/16 05:17:25;;;;;;;5.22;4.03;;;;;;;12.31;80.81;100361.81;5046821;28;20037;-79
2021/05/16 05:19:50;;;;;;;4.13;3.58;;;;;;;12.37;80.90;100363.41;5046022;28;20017;-79
2021/05/16 05:22:16;;;;;;;5.40;3.60;;;;;;;12.62;79.87;100368.78;5039882;28;20040;-79
2021/05/16 05:24:42;;;;;;;7.82;3.80;;;;;;;12.64;79.95;100369.31;5046223;28;20407;-80
2021/05/16 05:27:08;;;;;;;4.57;3.22;;;;;;;12.48;79.30;100369.59;5033986;28;20067;-79
2021/05/16 05:29:33;;;;;;;5.15;3.25;;;;;;;12.11;80.85;100367.97;5037965;28;20207;-79
2021/05/16 05:31:59;;;;;;;3.90;3.55;;;;;;;12.42;80.19;100366.13;5044782;28;20099;-78
2021/05/16 05:34:25;;;;;;;7.88;3.70;;;;;;;12.85;78.82;100367.41;5045344;28;20441;-79
2021/05/16 05:36:54;;;;;;;4.00;3.58;;;;;;;13.13;77.77;100373.25;5046348;28;20025;-79
2021/05/16 05:39:20;;;;;;;6.65;3.55;;;;;;;13.36;77.26;100364.59;5042284;28;20500;-79
2021/05/16 05:41:46;;;;;;;5.07;3.78;;;;;;;13.48;76.93;100367.78;5046179;28;20099;-79
2021/05/16 05:44:12;;;;;;;4.28;3.83;;;;;;;13.62;76.45;100367.94;5039203;28;20506;-79
2021/05/16 05:46:38;;;;;;;5.80;3.30;;;;;;;13.82;75.22;100367.03;5041836;28;20031;-79
2021/05/16 05:49:04;;;;;;;4.05;3.30;;;;;;;13.98;74.70;100365.84;5045123;28;20449;-79
2021/05/16 05:51:30;;;;;;;4.20;2.92;;;;;;;13.79;73.95;100372.97;5042659;28;20104;-79
2021/05/16 05:53:56;;;;;;;4.78;3.15;;;;;;;13.66;76.33;100376.31;5042527;28;20029;-79
2021/05/16 05:56:21;;;;;;;5.03;2.95;;;;;;;13.76;74.26;100381.63;5043220;28;20025;-79
2021/05/16 05:58:47;;;;;;;5.65;3.30;;;;;;;14.38;73.36;100380.94;5039556;28;20083;-79
2021/05/16 06:01:12;;;;;;;4.53;2.75;;;;;;;14.64;71.63;100376.16;5036684;28;20081;-79
2021/05/16 06:03:38;;;;;;;4.45;2.85;;;;;;;14.86;70.86;100374.84;5046091;28;20502;-79
2021/05/16 06:06:04;;;;;;;3.72;2.42;;;;;;;14.18;68.70;100372.97;5044674;28;20426;-79
2021/05/16 06:08:29;;;;;;;5.22;2.42;;;;;;;14.63;67.89;100374.53;5043444;28;20048;-78
2021/05/16 06:10:55;;;;;;;2.80;2.55;;;;;;;14.13;72.25;100379.22;5045286;28;20059;-79
2021/05/16 06:13:20;;;;;;;3.05;2.67;;;;;;;14.49;69.31;100376.28;5040434;28;20406;-79
2021/05/16 06:15:46;;;;;;;3.13;2.60;;;;;;;14.66;67.51;100383.94;5044172;28;20478;-79
2021/05/16 06:18:12;;;;;;;3.95;2.85;;;;;;;14.68;69.11;100382.56;5046223;28;20087;-80
2021/05/16 06:20:37;;;;;;;2.70;2.38;;;;;;;14.69;68.84;100389.56;5041544;28;20036;-80
2021/05/16 06:23:04;;;;;;;4.03;2.70;;;;;;;14.76;68.10;100384.69;5045046;28;20505;-81
2021/05/16 06:25:30;;;;;;;3.92;2.95;;;;;;;14.95;66.62;100387.47;5043956;28;20056;-80
2021/05/16 06:27:56;;;;;;;4.47;2.60;;;;;;;14.64;67.29;100386.94;5044383;28;20040;-80
2021/05/16 06:30:23;;;;;;;3.50;2.22;;;;;;;14.75;67.16;100380.38;5045397;28;20033;-80
2021/05/16 06:32:49;;;;;;;4.05;2.63;;;;;;;14.63;66.57;100379.94;5049928;28;20058;-80
2021/05/16 06:35:15;;;;;;;4.50;2.30;;;;;;;14.57;66.41;100381.09;5048639;28;20119;-79
2021/05/16 06:37:40;;;;;;;4.82;1.90;;;;;;;15.06;64.70;100374.66;5047343;28;20151;-82
2021/05/16 06:40:07;;;;;;;4.10;2.47;;;;;;;15.10;63.76;100378.41;5046077;28;20079;-80
2021/05/16 06:42:33;;;;;;;3.00;2.20;;;;;;;14.86;64.56;100383.75;5049517;28;21454;-80
2021/05/16 06:44:58;;;;;;;2.65;2.15;;;;;;;14.29;66.74;100373.72;5042300;28;20086;-79
2021/05/16 06:47:24;;;;;;;2.47;1.90;;;;;;;14.34;67.54;100381.75;5044068;28;20017;-81
2021/05/16 06:49:53;;;;;;;2.92;2.13;;;;;;;14.50;67.40;100386.78;5044753;28;20567;-80
2021/05/16 06:52:19;;;;;;;2.28;1.90;;;;;;;14.14;67.04;100372.75;5049603;28;20553;-81
2021/05/16 06:54:45;;;;;;;4.80;2.10;;;;;;;14.87;65.23;100379.97;5048437;28;20028;-80
2021/05/16 06:57:10;;;;;;;4.25;1.90;;;;;;;14.97;65.13;100390.66;5046471;28;20109;-80
2021/05/16 06:59:36;;;;;;;2.53;1.90;;;;;;;14.06;68.21;100381.44;5044453;28;20033;-81
2021/05/16 07:02:01;;;;;;;3.67;2.17;;;;;;;14.37;68.63;100376.63;5049169;28;20051;-80
2021/05/16 07:04:27;;;;;;;2.28;2.03;;;;;;;14.31;66.91;100374.25;5048932;28;20059;-80
2021/05/16 07:06:53;;;;;;;2.42;1.77;;;;;;;14.75;66.01;100366.88;5047707;28;20588;-81
2021/05/16 07:09:18;;;;;;;2.47;2.00;;;;;;;15.29;64.71;100359.56;5046472;28;20025;-81
2021/05/16 07:11:44;;;;;;;2.25;1.75;;;;;;;15.67;63.42;100352.34;5043002;28;20021;-80
2021/05/16 07:14:09;;;;;;;4.47;1.88;;;;;;;15.86;61.53;100350.44;5045033;28;20376;-80
2021/05/16 07:16:35;;;;;;;4.10;1.75;;;;;;;16.07;60.82;100352.84;5048075;28;20050;-81
2021/05/16 07:19:02;;;;;;;2.55;1.60;;;;;;;15.89;60.64;100355.25;5044376;28;20033;-81
2021/05/16 07:21:27;;;;;;;1.92;1.60;;;;;;;16.13;58.69;100354.34;5041697;28;20047;-81
2021/05/16 07:23:53;;;;;;;2.90;1.42;;;;;;;15.76;59.85;100350.56;5049342;28;20128;-82
2021/05/16 07:26:19;;;;;;;1.35;1.25;;;;;;;15.99;59.14;100351.63;5042207;28;20025;-81
2021/05/16 07:28:44;;;;;;;5.68;1.30;;;;;;;15.96;56.08;100358.38;5050384;28;20025;-81
2021/05/16 07:31:10;;;;;;;1.13;1.02;;;;;;;15.46;58.23;100361.78;5042399;28;20120;-80
2021/05/16 07:33:35;;;;;;;1.67;1.50;;;;;;;15.46;60.53;100361.78;5042370;28;20032;-80
2021/05/16 07:36:01;;;;;;;1.58;1.20;;;;;;;16.19;58.58;100355.91;5037929;28;20325;-80
2021/05/16 07:38:26;;;;;;;1.30;1.20;;;;;;;16.20;56.79;100357.50;5038580;28;20029;-81
2021/05/16 07:40:52;;;;;;;2.05;1.35;;;;;;;15.97;56.13;100351.06;5038093;28;20282;-79
2021/05/16 07:43:18;;;;;;;3.78;1.40;;;;;;;16.69;56.86;100348.03;5037102;28;20489;-80
2021/05/16 07:45:43;;;;;;;3.72;1.38;;;;;;;16.87;56.65;100349.84;5042857;28;20507;-80
2021/05/16 07:48:09;;;;;;;1.52;0.98;;;;;;;17.05;53.64;100348.16;5041555;28;20040;-80
2021/05/16 07:50:35;;;;;;;1.50;1.35;;;;;;;17.25;54.08;100346.97;5042334;28;20035;-80
2021/05/16 07:53:02;;;;;;;1.83;1.00;;;;;;;17.11;52.05;100334.25;5043316;28;20512;-82
2021/05/16 07:55:27;;;;;;;2.13;1.02;;;;;;;17.16;53.30;100341.47;5037444;28;20033;-81
2021/05/16 07:57:53;;;;;;;1.20;1.10;;;;;;;16.99;54.04;100344.75;5041662;28;20044;-81
2021/05/16 08:00:19;;;;;;;1.13;0.98;;;;;;;17.25;54.71;100336.16;5038899;28;20160;-81
2021/05/16 08:02:44;;;;;;;1.27;1.15;;;;;;;17.64;53.50;100330.97;5039297;28;20029;-81
2021/05/16 08:05:12;;;;;;;1.10;1.00;;;;;;;17.63;52.93;100333.97;5040710;28;20400;-80
2021/05/16 08:07:37;;;;;;;2.35;1.10;;;;;;;17.84;52.52;100332.44;5042080;28;20052;-81
2021/05/16 08:10:07;;;;;;;1.35;1.15;;;;;;;17.31;52.87;100343.06;5038299;28;20434;-81
2021/05/16 08:12:34;;;;;;;3.90;2.13;;;;;;;16.71;53.70;100335.03;5039574;28;20505;-80
2021/05/16 08:14:59;;;;;;;9.45;4.47;;;;;;;17.41;53.26;100332.78;5037531;28;20037;-80
2021/05/16 08:17:25;;;;;;;5.70;3.92;;;;;;;17.30;53.90;100336.03;5036889;28;20090;-81
2021/05/16 08:19:50;;;;;;;2.75;1.17;;;;;;;17.12;54.09;100335.84;5041231;28;20026;-80
2021/05/16 08:22:16;;;;;;;1.85;1.10;;;;;;;17.45;52.57;100339.22;5034357;28;20032;-81
2021/05/16 08:24:42;;;;;;;3.08;1.27;;;;;;;17.75;52.58;100326.94;5035335;28;20108;-78
2021/05/16 08:27:08;;;;;;;1.13;0.90;;;;;;;18.15;51.51;100324.41;5036895;28;20040;-78
2021/05/16 08:29:36;;;;;;;3.20;1.08;;;;;;;17.98;50.55;100321.56;5035628;28;20017;-79
2021/05/16 08:32:06;;;;;;;2.38;1.27;;;;;;;18.24;50.20;100332.56;5030137;28;20464;-78
2021/05/16 08:34:33;;;;;;;4.95;1.48;;;;;;;18.05;50.88;100328.13;5032809;28;20430;-79
2021/05/16 08:36:59;;;;;;;1.63;1.40;;;;;;;18.22;50.90;100330.16;5029151;28;20029;-80
2021/05/16 08:39:24;;;;;;;3.13;1.40;;;;;;;17.47;49.16;100334.31;5033249;28;20049;-79
2021/05/16 08:41:50;;;;;;;2.03;0.90;;;;;;;17.52;50.85;100333.38;5037378;28;20025;-78
2021/05/16 08:44:17;;;;;;;2.90;1.23;;;;;;;17.76;50.74;100333.94;5036799;28;20029;-78
2021/05/16 08:46:43;;;;;;;1.15;0.90;;;;;;;18.03;50.74;100337.69;5033539;28;20025;-79
2021/05/16 08:49:09;;;;;;;2.50;1.38;;;;;;;18.60;50.18;100329.75;5041324;28;20029;-79
2021/05/16 08:51:34;;;;;;;3.72;1.42;;;;;;;19.03;48.12;100340.84;5037173;28;20639;-78
2021/05/16 08:54:00;;;;;;;1.80;1.02;;;;;;;18.38;47.63;100334.09;5039852;28;20029;-80
2021/05/16 08:56:26;;;;;;;2.85;1.30;;;;;;;18.31;48.64;100341.88;5038695;28;20037;-79
2021/05/16 08:58:51;;;;;;;1.52;1.17;;;;;;;18.21;48.42;100333.19;5032910;28;20487;-78
2021/05/16 09:01:21;;;;;;;1.13;0.90;;;;;;;18.20;48.63;100337.00;5031598;28;20062;-78
2021/05/16 09:03:47;;;;;;;1.10;1.00;;;;;;;17.95;49.58;100341.91;5039707;28;20132;-79
2021/05/16 09:06:13;;;;;;;2.55;1.00;;;;;;;18.15;49.89;100340.66;5038724;28;21593;-79
2021/05/16 09:08:39;;;;;;;1.52;1.00;;;;;;;18.08;50.81;100343.78;5034443;28;20856;-78
2021/05/16 09:11:05;;;;;;;2.33;1.38;;;;;;;18.09;50.95;100347.28;5032551;28;20040;-79
2021/05/16 09:13:35;;;;;;;2.67;1.50;;;;;;;18.46;50.50;100342.59;5035358;28;20033;-78
2021/05/16 09:16:14;;;;;;;1.77;1.60;;;;;;;17.93;50.77;100340.63;5033040;28;20541;-78
2021/05/16 09:18:53;;;;;;;2.17;1.33;;;;;;;17.99;51.20;100344.84;5030720;28;21731;-79
2021/05/16 09:21:33;;;;;;;3.33;1.50;;;;;;;18.00;52.09;100343.72;5028711;28;20250;-78
2021/05/16 09:24:06;;;;;;;3.40;1.42;;;;;;;17.39;54.98;100343.13;5029774;28;20040;-80
2021/05/16 09:26:37;;;;;;;2.83;1.67;;;;;;;17.63;54.77;100345.63;5047940;28;20107;-78
2021/05/16 09:29:28;;;;;;;2.28;1.30;;;;;;;17.37;55.37;100352.66;5036846;28;20036;-78
2021/05/16 09:31:56;;;;;;;1.20;1.10;;;;;;;17.50;55.22;100346.44;5057489;28;20028;-79
2021/05/16 09:34:22;;;;;;;1.63;1.30;;;;;;;17.33;55.86;100346.25;5036106;28;20029;-79
2021/05/16 09:36:49;;;;;;;2.55;0.98;;;;;;;18.45;50.31;100344.50;5032785;28;20071;-78
2021/05/16 09:39:27;;;;;;;2.58;1.13;;;;;;;18.81;47.61;100343.59;5036656;28;20486;-79
2021/05/16 09:42:09;;;;;;;3.22;1.27;;;;;;;18.94;48.72;100338.09;5043946;28;20059;-79
2021/05/16 09:44:45;;;;;;;4.70;1.10;;;;;;;19.67;47.97;100334.94;5038912;28;20065;-79
2021/05/16 09:47:16;;;;;;;1.02;0.93;;;;;;;18.42;46.61;100345.94;5037229;28;20039;-80
2021/05/16 09:49:53;;;;;;;2.03;1.00;;;;;;;18.63;47.73;100334.59;5044957;28;20025;-78
2021/05/16 09:52:29;;;;;;;1.35;0.98;;;;;;;18.49;49.73;100331.94;5034757;28;20057;-79
2021/05/16 09:55:11;;;;;;;1.70;1.20;;;;;;;18.42;49.86;100342.41;5031662;28;20079;-79
2021/05/16 09:57:39;;;;;;;1.70;1.10;;;;;;;17.45;51.26;100333.00;5046930;28;20029;-78
2021/05/16 10:00:07;;;;;;;1.35;1.00;;;;;;;17.60;50.81;100338.09;5044937;28;20032;-79
2021/05/16 10:02:33;;;;;;;2.67;1.15;;;;;;;16.50;54.84;100340.75;5037592;28;20303;-80
2021/05/16 10:05:01;;;;;;;1.00;0.82;;;;;;;16.45;55.01;100338.16;5034432;28;20047;-79
2021/05/16 10:07:28;;;;;;;2.30;1.00;;;;;;;16.90;53.72;100338.47;5038547;28;20029;-78
2021/05/16 10:09:55;;;;;;;1.98;1.30;;;;;;;17.37;52.35;100331.81;5046881;28;20048;-77
2021/05/16 10:12:22;;;;;;;2.42;1.50;;;;;;;17.27;53.16;100333.94;5043309;28;20040;-78
2021/05/16 10:14:52;;;;;;;1.15;1.00;;;;;;;17.02;53.94;100330.63;5045872;28;20025;-79
2021/05/16 10:17:20;;;;;;;0.98;0.80;;;;;;;16.08;54.50;100327.41;5041364;28;20075;-80
2021/05/16 10:19:46;;;;;;;1.08;0.98;;;;;;;16.76;53.96;100327.63;5044796;28;20025;-80
2021/05/16 10:22:17;;;;;;;0.75;0.70;;;;;;;16.89;54.98;100326.84;5044928;28;20057;-79
2021/05/16 10:24:51;;;;;;;1.35;0.90;;;;;;;16.62;53.18;100327.56;5039763;28;20039;-78
2021/05/16 10:27:29;;;;;;;4.27;1.07;;;;;;;16.59;53.77;100333.56;5043794;28;20030;-79
2021/05/16 10:30:06;;;;;;;0.93;0.80;;;;;;;16.54;53.48;100335.56;5044297;28;20052;-78
2021/05/16 10:32:58;;;;;;;1.75;1.08;;;;;;;16.78;53.92;100340.84;5042198;28;20035;-78
2021/05/16 10:35:23;;;;;;;1.83;0.77;;;;;;;16.37;53.03;100333.44;5043456;28;20046;-78
2021/05/16 10:37:54;;;;;;;6.32;3.40;;;;;;;15.60;55.88;100335.69;5044536;28;20032;-79
2021/05/16 10:40:20;;;;;;;1.10;0.90;;;;;;;14.77;61.20;100353.91;5057362;28;20106;-79
2021/05/16 10:42:46;;;;;;;1.85;0.95;;;;;;;14.87;62.61;100360.28;5043215;28;20102;-79
2021/05/16 10:45:15;;;;;;;4.25;1.08;;;;;;;14.51;66.66;100366.00;5044664;28;20023;-78
2021/05/16 10:47:48;;;;;;;1.40;0.93;;;;;;;14.34;69.45;100362.91;5043663;28;20505;-79
2021/05/16 10:50:26;;;;;;;1.60;1.10;;;;;;;15.31;65.12;100360.88;5032399;28;20041;-81
2021/05/16 10:52:55;;;;;;;1.15;1.10;;;;;;;16.34;61.52;100347.53;5042901;28;20050;-79
2021/05/16 10:55:27;;;;;;;2.25;1.30;;;;;;;17.27;60.44;100344.78;5034212;28;20048;-79
2021/05/16 10:57:52;;;;;;;1.85;1.10;;;;;;;18.12;58.15;100344.75;5043305;28;20025;-80
2021/05/16 11:00:21;;;;;;;1.67;0.88;;;;;;;18.80;56.14;100350.16;5041782;28;20078;-79
2021/05/16 11:03:09;;;;;;;4.07;1.10;;;;;;;19.48;54.93;100344.16;5033690;28;20025;-79
2021/05/16 11:05:51;;;;;;;1.58;1.08;;;;;;;20.12;52.36;100336.22;5038847;28;20487;-79
2021/05/16 11:08:19;;;;;;;3.17;1.30;;;;;;;20.58;51.46;100331.97;5054419;28;20379;-80
2021/05/16 11:10:51;;;;;;;1.30;0.80;;;;;;;20.59;49.52;100330.84;5040043;28;20040;-79
2021/05/16 11:13:28;;;;;;;3.30;1.00;;;;;;;20.88;49.15;100332.03;5039906;28;20040;-80
2021/05/16 11:15:57;;;;;;;1.55;1.10;;;;;;;21.09;49.02;100324.72;5041070;28;20111;-80
2021/05/16 11:18:24;;;;;;;1.73;0.98;;;;;;;21.04;47.34;100317.53;5033778;28;20091;-79
2021/05/16 11:20:54;;;;;;;1.88;1.30;;;;;;;21.34;46.44;100323.00;5044232;28;20486;-79
2021/05/16 11:23:43;;;;;;;2.47;1.48;;;;;;;21.20;50.79;100317.00;5054945;28;20033;-79
2021/05/16 11:26:21;;;;;;;2.90;1.40;;;;;;;20.27;50.98;100320.50;5053096;28;20124;-82